Leesville, Indiana
Current Conditions -  °F | °C
As of 8:53 PM on Monday 24 Nov 2014 (Local Time) from KBMG Reporting Station
Overcast Overcast  
Wind Chill: 30°   Ceiling: 7500
Heat Index: 38°   Visibility: 10mi
Dew Point: 28°   Wind: 14mph
Humidity: 68%   Direction: 250°WSW
Pressure: 29.89"   Gusts: 20mph
Location:  38.8737°N, 86.4563°W
Report Text: KBMG 250153Z 25012G17KT 10SM OVC075 03/M02 A2989 RMK AO2 SLP124 T00331022
Loading
Personal Weather Stations






























Interactive Weather Map New forecast layout! Learn more

10-Day Weather Forecast

Advertisements
Track Severe Weather on mobile